sensor_id;sensor_type;location;lat;lon;timestamp;pressure;altitude;pressure_sealevel;temperature;humidity
60049;BME280;66154;45.544;6.756;2024-02-28T00:00:22;86392.34;;;3.05;67.28
60049;BME280;66154;45.544;6.756;2024-02-28T00:05:23;86393.81;;;3.06;66.48
60049;BME280;66154;45.544;6.756;2024-02-28T00:10:23;86399.75;;;3.07;67.89
60049;BME280;66154;45.544;6.756;2024-02-28T00:15:24;86406.03;;;3.09;67.47
60049;BME280;66154;45.544;6.756;2024-02-28T00:20:24;86403.44;;;3.09;66.74
60049;BME280;66154;45.544;6.756;2024-02-28T00:25:27;86413.81;;;3.09;66.43
60049;BME280;66154;45.544;6.756;2024-02-28T00:30:27;86412.34;;;3.08;67.15
60049;BME280;66154;45.544;6.756;2024-02-28T00:35:32;86426.09;;;3.05;70.58
60049;BME280;66154;45.544;6.756;2024-02-28T00:40:34;86427.22;;;3.04;65.73
60049;BME280;66154;45.544;6.756;2024-02-28T00:45:34;86429.84;;;3.04;64.76
60049;BME280;66154;45.544;6.756;2024-02-28T00:50:37;86439.47;;;3.04;67.52
60049;BME280;66154;45.544;6.756;2024-02-28T00:55:37;86448.00;;;3.04;68.06
60049;BME280;66154;45.544;6.756;2024-02-28T01:12:31;86460.53;;;3.09;68.18
60049;BME280;66154;45.544;6.756;2024-02-28T01:17:32;86466.88;;;3.08;66.37
60049;BME280;66154;45.544;6.756;2024-02-28T01:22:32;86470.59;;;3.07;67.69
60049;BME280;66154;45.544;6.756;2024-02-28T01:27:33;86469.13;;;3.06;67.71
60049;BME280;66154;45.544;6.756;2024-02-28T01:32:34;86479.13;;;3.08;66.94
60049;BME280;66154;45.544;6.756;2024-02-28T01:37:34;86479.50;;;3.06;67.31
60049;BME280;66154;45.544;6.756;2024-02-28T01:42:35;86478.81;;;3.02;66.31
60049;BME280;66154;45.544;6.756;2024-02-28T01:47:36;86483.66;;;3.00;63.40
60049;BME280;66154;45.544;6.756;2024-02-28T01:52:38;86489.25;;;2.95;67.74
60049;BME280;66154;45.544;6.756;2024-02-28T01:57:39;86490.34;;;2.98;67.38
60049;BME280;66154;45.544;6.756;2024-02-28T02:02:40;86499.63;;;2.99;70.41
60049;BME280;66154;45.544;6.756;2024-02-28T02:07:40;86500.78;;;2.94;69.05
60049;BME280;66154;45.544;6.756;2024-02-28T02:12:41;86500.06;;;2.90;68.77
60049;BME280;66154;45.544;6.756;2024-02-28T02:17:42;86501.94;;;2.90;64.18
60049;BME280;66154;45.544;6.756;2024-02-28T02:22:42;86510.50;;;2.87;63.72
60049;BME280;66154;45.544;6.756;2024-02-28T02:27:43;86518.31;;;2.83;67.77
60049;BME280;66154;45.544;6.756;2024-02-28T02:32:43;86510.53;;;2.83;65.62
60049;BME280;66154;45.544;6.756;2024-02-28T02:37:44;86518.31;;;2.83;68.87
60049;BME280;66154;45.544;6.756;2024-02-28T02:42:48;86514.59;;;2.84;68.37
60049;BME280;66154;45.544;6.756;2024-02-28T02:47:49;86530.53;;;2.86;68.50
60049;BME280;66154;45.544;6.756;2024-02-28T02:52:49;86530.53;;;2.86;67.42
60049;BME280;66154;45.544;6.756;2024-02-28T02:57:50;86528.31;;;2.85;67.91
60049;BME280;66154;45.544;6.756;2024-02-28T03:02:50;86537.94;;;2.84;68.50
60049;BME280;66154;45.544;6.756;2024-02-28T03:07:51;86535.75;;;2.83;66.75
60049;BME280;66154;45.544;6.756;2024-02-28T03:12:51;86537.25;;;2.80;68.43
60049;BME280;66154;45.544;6.756;2024-02-28T03:17:52;86539.50;;;2.78;68.67
60049;BME280;66154;45.544;6.756;2024-02-28T03:22:52;86548.41;;;2.77;68.96
60049;BME280;66154;45.544;6.756;2024-02-28T03:27:53;86556.94;;;2.74;69.19
60049;BME280;66154;45.544;6.756;2024-02-28T03:32:53;86559.97;;;2.69;69.86
60049;BME280;66154;45.544;6.756;2024-02-28T03:37:54;86558.50;;;2.68;69.09
60049;BME280;66154;45.544;6.756;2024-02-28T03:42:54;86567.75;;;2.69;66.22
60049;BME280;66154;45.544;6.756;2024-02-28T03:47:55;86561.44;;;2.70;68.39
60049;BME280;66154;45.544;6.756;2024-02-28T03:52:55;86572.94;;;2.69;68.09
60049;BME280;66154;45.544;6.756;2024-02-28T03:57:56;86573.28;;;2.71;68.60
60049;BME280;66154;45.544;6.756;2024-02-28T04:02:56;86582.53;;;2.72;67.79
60049;BME280;66154;45.544;6.756;2024-02-28T04:07:57;86581.44;;;2.73;67.19
60049;BME280;66154;45.544;6.756;2024-02-28T04:12:57;86583.28;;;2.72;68.73
60049;BME280;66154;45.544;6.756;2024-02-28T04:17:58;86578.44;;;2.74;66.71
60049;BME280;66154;45.544;6.756;2024-02-28T04:22:58;86588.47;;;2.72;67.40
60049;BME280;66154;45.544;6.756;2024-02-28T04:27:59;86589.66;;;2.68;68.85
60049;BME280;66154;45.544;6.756;2024-02-28T04:32:59;86590.75;;;2.67;69.12
60049;BME280;66154;45.544;6.756;2024-02-28T04:38:00;86597.06;;;2.66;69.20
60049;BME280;66154;45.544;6.756;2024-02-28T04:43:00;86597.44;;;2.64;69.95
60049;BME280;66154;45.544;6.756;2024-02-28T04:48:01;86606.03;;;2.58;67.80
60049;BME280;66154;45.544;6.756;2024-02-28T04:53:01;86604.16;;;2.58;69.70
60049;BME280;66154;45.544;6.756;2024-02-28T04:58:02;86602.69;;;2.57;69.59
60049;BME280;66154;45.544;6.756;2024-02-28T05:03:02;86602.69;;;2.57;68.85
60049;BME280;66154;45.544;6.756;2024-02-28T05:08:03;86606.75;;;2.58;68.84
60049;BME280;66154;45.544;6.756;2024-02-28T05:13:04;86608.63;;;2.58;68.30
60049;BME280;66154;45.544;6.756;2024-02-28T05:18:04;86615.31;;;2.55;69.31
60049;BME280;66154;45.544;6.756;2024-02-28T05:23:05;86616.78;;;2.53;67.30
60049;BME280;66154;45.544;6.756;2024-02-28T05:28:05;86623.88;;;2.49;69.40
60049;BME280;66154;45.544;6.756;2024-02-28T05:33:06;86621.28;;;2.45;69.56
60049;BME280;66154;45.544;6.756;2024-02-28T05:38:06;86632.06;;;2.44;68.62
60049;BME280;66154;45.544;6.756;2024-02-28T05:43:07;86636.88;;;2.42;68.64
60049;BME280;66154;45.544;6.756;2024-02-28T05:48:07;86645.06;;;2.40;74.18
60049;BME280;66154;45.544;6.756;2024-02-28T05:53:08;86650.97;;;2.37;73.74
60049;BME280;66154;45.544;6.756;2024-02-28T05:58:09;86648.03;;;2.39;70.93
60049;BME280;66154;45.544;6.756;2024-02-28T06:03:09;86655.44;;;2.40;68.94
60049;BME280;66154;45.544;6.756;2024-02-28T06:08:10;86663.22;;;2.40;68.54
60049;BME280;66154;45.544;6.756;2024-02-28T06:13:10;86673.22;;;2.38;68.14
60049;BME280;66154;45.544;6.756;2024-02-28T06:18:11;86676.56;;;2.39;69.82
60049;BME280;66154;45.544;6.756;2024-02-28T06:23:12;86682.81;;;2.41;69.60
60049;BME280;66154;45.544;6.756;2024-02-28T06:28:12;86697.28;;;2.46;69.58
60049;BME280;66154;45.544;6.756;2024-02-28T06:33:13;86705.03;;;2.49;69.76
60049;BME280;66154;45.544;6.756;2024-02-28T06:38:14;86709.47;;;2.52;69.92
60049;BME280;66154;45.544;6.756;2024-02-28T06:43:14;86715.00;;;2.58;69.87
60049;BME280;66154;45.544;6.756;2024-02-28T06:48:16;86719.41;;;2.61;68.60
60049;BME280;66154;45.544;6.756;2024-02-28T06:53:16;86727.56;;;2.63;68.89
60049;BME280;66154;45.544;6.756;2024-02-28T06:58:17;86729.75;;;2.64;69.51
60049;BME280;66154;45.544;6.756;2024-02-28T07:03:18;86744.22;;;2.69;69.84
60049;BME280;66154;45.544;6.756;2024-02-28T07:08:18;86749.00;;;2.74;66.28
60049;BME280;66154;45.544;6.756;2024-02-28T07:13:20;86762.72;;;2.71;75.08
60049;BME280;66154;45.544;6.756;2024-02-28T07:18:20;86770.53;;;2.71;70.60
60049;BME280;66154;45.544;6.756;2024-02-28T07:23:21;86771.63;;;2.73;72.93
60049;BME280;66154;45.544;6.756;2024-02-28T07:28:21;86781.25;;;2.76;64.65
60049;BME280;66154;45.544;6.756;2024-02-28T07:33:22;86780.50;;;2.76;69.32
60049;BME280;66154;45.544;6.756;2024-02-28T07:38:22;86796.78;;;2.80;68.30
60049;BME280;66154;45.544;6.756;2024-02-28T07:43:28;86798.28;;;2.81;65.43
60049;BME280;66154;45.544;6.756;2024-02-28T07:48:29;86797.16;;;2.82;70.24
60049;BME280;66154;45.544;6.756;2024-02-28T07:53:29;86802.69;;;2.88;68.00
60049;BME280;66154;45.544;6.756;2024-02-28T07:58:30;86798.94;;;2.92;67.53
60049;BME280;66154;45.544;6.756;2024-02-28T08:03:30;86810.06;;;2.96;68.21
60049;BME280;66154;45.544;6.756;2024-02-28T08:08:31;86824.88;;;2.99;66.67
60049;BME280;66154;45.544;6.756;2024-02-28T08:13:31;86821.16;;;3.04;70.12
60049;BME280;66154;45.544;6.756;2024-02-28T08:18:33;86830.75;;;3.10;71.02
60049;BME280;66154;45.544;6.756;2024-02-28T08:23:35;86838.16;;;3.12;65.95
60049;BME280;66154;45.544;6.756;2024-02-28T08:28:35;86840.34;;;3.20;68.33
60049;BME280;66154;45.544;6.756;2024-02-28T08:33:36;86840.31;;;3.27;64.49
60049;BME280;66154;45.544;6.756;2024-02-28T08:38:36;86849.19;;;3.30;64.50
60049;BME280;66154;45.544;6.756;2024-02-28T08:43:39;86851.41;;;3.31;69.24
60049;BME280;66154;45.544;6.756;2024-02-28T08:48:40;86850.59;;;3.41;65.42
60049;BME280;66154;45.544;6.756;2024-02-28T08:53:41;86846.47;;;3.51;64.47
60049;BME280;66154;45.544;6.756;2024-02-28T08:58:41;86844.19;;;3.56;67.11
60049;BME280;66154;45.544;6.756;2024-02-28T09:03:42;86847.84;;;3.66;64.43
60049;BME280;66154;45.544;6.756;2024-02-28T09:08:43;86855.22;;;3.71;71.05
60049;BME280;66154;45.544;6.756;2024-02-28T09:13:43;86847.00;;;3.80;64.35
60049;BME280;66154;45.544;6.756;2024-02-28T09:18:44;86850.34;;;3.77;69.57
60049;BME280;66154;45.544;6.756;2024-02-28T09:23:44;86859.97;;;3.83;71.26
60049;BME280;66154;45.544;6.756;2024-02-28T09:28:45;86857.31;;;3.90;76.44
60049;BME280;66154;45.544;6.756;2024-02-28T09:33:46;86872.09;;;4.00;78.16
60049;BME280;66154;45.544;6.756;2024-02-28T09:38:46;86874.22;;;4.12;75.36
60049;BME280;66154;45.544;6.756;2024-02-28T09:43:47;86877.84;;;4.22;68.44
60049;BME280;66154;45.544;6.756;2024-02-28T09:48:49;86882.56;;;4.34;70.99
60049;BME280;66154;45.544;6.756;2024-02-28T09:53:51;86880.78;;;4.27;77.61
60049;BME280;66154;45.544;6.756;2024-02-28T09:58:52;86883.41;;;4.24;67.67
60049;BME280;66154;45.544;6.756;2024-02-28T10:03:54;86892.69;;;4.25;69.92
60049;BME280;66154;45.544;6.756;2024-02-28T10:08:54;86895.28;;;4.25;70.56
60049;BME280;66154;45.544;6.756;2024-02-28T10:13:55;86909.38;;;4.31;72.83
60049;BME280;66154;45.544;6.756;2024-02-28T10:18:55;86914.16;;;4.36;74.79
60049;BME280;66154;45.544;6.756;2024-02-28T10:23:58;86913.06;;;4.33;69.06
60049;BME280;66154;45.544;6.756;2024-02-28T10:28:58;86917.53;;;4.33;69.85
60049;BME280;66154;45.544;6.756;2024-02-28T10:34:01;86920.50;;;4.35;66.81
60049;BME280;66154;45.544;6.756;2024-02-28T10:39:03;86928.22;;;4.42;66.87
60049;BME280;66154;45.544;6.756;2024-02-28T10:44:04;86926.66;;;4.51;65.72
60049;BME280;66154;45.544;6.756;2024-02-28T10:49:05;86928.06;;;4.59;67.64
60049;BME280;66154;45.544;6.756;2024-02-28T10:54:10;86934.31;;;4.69;65.43
60049;BME280;66154;45.544;6.756;2024-02-28T10:59:12;86927.50;;;4.79;69.03
60049;BME280;66154;45.544;6.756;2024-02-28T11:04:16;86922.44;;;5.02;68.40
60049;BME280;66154;45.544;6.756;2024-02-28T11:09:21;86920.00;;;5.21;65.60
60049;BME280;66154;45.544;6.756;2024-02-28T11:14:28;86929.56;;;5.31;69.24
60049;BME280;66154;45.544;6.756;2024-02-28T11:19:31;86921.69;;;5.35;65.33
60049;BME280;66154;45.544;6.756;2024-02-28T11:24:33;86915.72;;;5.38;65.24
60049;BME280;66154;45.544;6.756;2024-02-28T11:29:36;86914.97;;;5.37;64.95
60049;BME280;66154;45.544;6.756;2024-02-28T11:34:37;86903.09;;;5.33;70.98
60049;BME280;66154;45.544;6.756;2024-02-28T11:39:39;86903.81;;;5.37;68.07
60049;BME280;66154;45.544;6.756;2024-02-28T11:44:40;86901.84;;;5.44;70.95
60049;BME280;66154;45.544;6.756;2024-02-28T11:49:41;86908.16;;;5.47;67.00
60049;BME280;66154;45.544;6.756;2024-02-28T11:54:42;86891.38;;;5.48;68.25
60049;BME280;66154;45.544;6.756;2024-02-28T11:59:44;86896.09;;;5.57;69.70
60049;BME280;66154;45.544;6.756;2024-02-28T12:04:45;86898.56;;;5.67;69.12
60049;BME280;66154;45.544;6.756;2024-02-28T12:09:48;86893.53;;;5.83;69.91
60049;BME280;66154;45.544;6.756;2024-02-28T12:14:49;86891.31;;;5.82;71.86
60049;BME280;66154;45.544;6.756;2024-02-28T12:19:50;86896.84;;;5.87;71.52
60049;BME280;66154;45.544;6.756;2024-02-28T12:24:51;86896.97;;;6.03;68.86
60049;BME280;66154;45.544;6.756;2024-02-28T12:29:51;86893.38;;;6.20;67.04
60049;BME280;66154;45.544;6.756;2024-02-28T12:34:52;86891.16;;;6.42;67.22
60049;BME280;66154;45.544;6.756;2024-02-28T12:39:54;86880.72;;;6.65;66.63
60049;BME280;66154;45.544;6.756;2024-02-28T12:44:54;86879.94;;;6.88;66.70
60049;BME280;66154;45.544;6.756;2024-02-28T12:49:55;86878.28;;;7.17;67.17
60049;BME280;66154;45.544;6.756;2024-02-28T12:54:56;86867.00;;;7.75;68.63
60049;BME280;66154;45.544;6.756;2024-02-28T12:59:56;86866.09;;;8.82;69.68
60049;BME280;66154;45.544;6.756;2024-02-28T13:04:57;86863.16;;;9.78;71.43
60049;BME280;66154;45.544;6.756;2024-02-28T13:09:57;86870.66;;;10.68;71.26
60049;BME280;66154;45.544;6.756;2024-02-28T13:14:58;86862.72;;;11.27;72.28
60049;BME280;66154;45.544;6.756;2024-02-28T13:19:59;86856.34;;;11.59;71.59
60049;BME280;66154;45.544;6.756;2024-02-28T13:25:00;86855.03;;;11.76;68.40
60049;BME280;66154;45.544;6.756;2024-02-28T13:30:01;86857.69;;;11.76;69.04
60049;BME280;66154;45.544;6.756;2024-02-28T13:35:01;86862.16;;;11.54;68.63
60049;BME280;66154;45.544;6.756;2024-02-28T13:40:02;86857.03;;;11.50;69.08
60049;BME280;66154;45.544;6.756;2024-02-28T13:45:05;86854.63;;;11.65;67.52
60049;BME280;66154;45.544;6.756;2024-02-28T13:50:07;86852.59;;;11.81;63.00
60049;BME280;66154;45.544;6.756;2024-02-28T13:55:09;86861.00;;;11.98;68.72
60049;BME280;66154;45.544;6.756;2024-02-28T14:00:11;86859.78;;;11.90;66.96
60049;BME280;66154;45.544;6.756;2024-02-28T14:05:13;86859.41;;;11.70;66.93
60049;BME280;66154;45.544;6.756;2024-02-28T14:10:15;86858.34;;;11.67;57.05
60049;BME280;66154;45.544;6.756;2024-02-28T14:15:16;86862.34;;;12.24;69.69
60049;BME280;66154;45.544;6.756;2024-02-28T14:20:17;86860.34;;;12.37;67.68
60049;BME280;66154;45.544;6.756;2024-02-28T14:25:18;86852.50;;;12.25;68.66
60049;BME280;66154;45.544;6.756;2024-02-28T14:30:21;86854.63;;;12.08;64.96
60049;BME280;66154;45.544;6.756;2024-02-28T14:35:22;86860.38;;;11.85;64.89
60049;BME280;66154;45.544;6.756;2024-02-28T14:40:22;86862.72;;;11.27;64.79
60049;BME280;66154;45.544;6.756;2024-02-28T14:45:23;86865.78;;;10.79;63.23
60049;BME280;66154;45.544;6.756;2024-02-28T14:50:26;86854.06;;;10.58;62.77
60049;BME280;66154;45.544;6.756;2024-02-28T14:55:27;86855.53;;;10.34;65.27
60049;BME280;66154;45.544;6.756;2024-02-28T15:00:27;86855.56;;;10.22;65.49
60049;BME280;66154;45.544;6.756;2024-02-28T15:05:28;86856.03;;;10.04;60.44
60049;BME280;66154;45.544;6.756;2024-02-28T15:10:29;86859.69;;;9.81;63.72
60049;BME280;66154;45.544;6.756;2024-02-28T15:15:29;86865.44;;;9.76;62.61
60049;BME280;66154;45.544;6.756;2024-02-28T15:20:30;86865.75;;;9.66;65.30
60049;BME280;66154;45.544;6.756;2024-02-28T15:25:30;86869.41;;;9.56;65.06
60049;BME280;66154;45.544;6.756;2024-02-28T15:30:31;86886.28;;;9.42;63.90
60049;BME280;66154;45.544;6.756;2024-02-28T15:35:31;86895.81;;;9.20;64.82
60049;BME280;66154;45.544;6.756;2024-02-28T15:40:32;86901.50;;;9.02;64.65
60049;BME280;66154;45.544;6.756;2024-02-28T15:45:33;86903.50;;;8.98;65.00
60049;BME280;66154;45.544;6.756;2024-02-28T15:50:34;86910.06;;;8.90;64.79
60049;BME280;66154;45.544;6.756;2024-02-28T15:55:36;86907.22;;;8.85;65.22
60049;BME280;66154;45.544;6.756;2024-02-28T16:00:36;86913.13;;;8.73;64.60
60049;BME280;66154;45.544;6.756;2024-02-28T16:05:37;86919.44;;;8.59;64.66
60049;BME280;66154;45.544;6.756;2024-02-28T16:10:38;86922.34;;;8.45;65.05
60049;BME280;66154;45.544;6.756;2024-02-28T16:15:38;86924.16;;;8.32;64.79
60049;BME280;66154;45.544;6.756;2024-02-28T16:20:39;86923.56;;;8.24;64.84
60049;BME280;66154;45.544;6.756;2024-02-28T16:25:42;86926.78;;;8.12;67.17
60049;BME280;66154;45.544;6.756;2024-02-28T16:30:43;86938.13;;;7.90;65.38
60049;BME280;66154;45.544;6.756;2024-02-28T16:35:46;86940.69;;;7.74;66.06
60049;BME280;66154;45.544;6.756;2024-02-28T16:40:47;86950.28;;;7.61;66.92
60049;BME280;66154;45.544;6.756;2024-02-28T16:45:47;86951.69;;;7.46;69.72
60049;BME280;66154;45.544;6.756;2024-02-28T16:50:50;86956.09;;;7.29;65.89
60049;BME280;66154;45.544;6.756;2024-02-28T16:55:50;86965.59;;;7.19;68.55
60049;BME280;66154;45.544;6.756;2024-02-28T17:00:51;86968.47;;;7.05;69.26
60049;BME280;66154;45.544;6.756;2024-02-28T17:05:51;86974.69;;;6.92;66.53
60049;BME280;66154;45.544;6.756;2024-02-28T17:10:52;86975.53;;;6.85;65.35
60049;BME280;66154;45.544;6.756;2024-02-28T17:15:53;86981.28;;;6.77;66.90
60049;BME280;66154;45.544;6.756;2024-02-28T17:20:54;86995.47;;;6.76;66.75
60049;BME280;66154;45.544;6.756;2024-02-28T17:25:55;86999.59;;;6.73;67.70
60049;BME280;66154;45.544;6.756;2024-02-28T17:30:56;87004.53;;;6.68;65.31
60049;BME280;66154;45.544;6.756;2024-02-28T17:35:57;87007.25;;;6.61;67.77
60049;BME280;66154;45.544;6.756;2024-02-28T17:40:58;87017.41;;;6.55;66.96
60049;BME280;66154;45.544;6.756;2024-02-28T17:45:58;87016.72;;;6.51;66.92
60049;BME280;66154;45.544;6.756;2024-02-28T17:51:01;87026.09;;;6.49;67.29
60049;BME280;66154;45.544;6.756;2024-02-28T17:56:03;87040.66;;;6.46;67.01
60049;BME280;66154;45.544;6.756;2024-02-28T18:01:06;87038.50;;;6.41;65.46
60049;BME280;66154;45.544;6.756;2024-02-28T18:06:07;87041.28;;;6.30;67.04
60049;BME280;66154;45.544;6.756;2024-02-28T18:11:08;87045.44;;;6.24;66.32
60049;BME280;66154;45.544;6.756;2024-02-28T18:16:08;87054.09;;;6.18;67.31
60049;BME280;66154;45.544;6.756;2024-02-28T18:21:09;87039.22;;;6.15;67.22
60049;BME280;66154;45.544;6.756;2024-02-28T18:26:10;87044.09;;;6.13;67.31
60049;BME280;66154;45.544;6.756;2024-02-28T18:31:12;87041.50;;;6.09;67.08
60049;BME280;66154;45.544;6.756;2024-02-28T18:36:12;87042.72;;;6.05;67.60
60049;BME280;66154;45.544;6.756;2024-02-28T18:41:13;87042.00;;;6.01;67.47
60049;BME280;66154;45.544;6.756;2024-02-28T18:46:14;87035.00;;;5.94;67.56
60049;BME280;66154;45.544;6.756;2024-02-28T18:51:16;87039.97;;;5.85;67.45
60049;BME280;66154;45.544;6.756;2024-02-28T18:56:16;87039.31;;;5.74;66.60
60049;BME280;66154;45.544;6.756;2024-02-28T19:01:17;87043.22;;;5.59;67.04
60049;BME280;66154;45.544;6.756;2024-02-28T19:06:17;87042.59;;;5.44;67.56
60049;BME280;66154;45.544;6.756;2024-02-28T19:11:19;87041.63;;;5.31;67.62
60049;BME280;66154;45.544;6.756;2024-02-28T19:16:19;87045.47;;;5.20;67.45
60049;BME280;66154;45.544;6.756;2024-02-28T19:21:20;87047.44;;;5.09;67.31
60049;BME280;66154;45.544;6.756;2024-02-28T19:26:20;87038.94;;;4.98;67.28
60049;BME280;66154;45.544;6.756;2024-02-28T19:31:21;87047.97;;;4.86;67.31
60049;BME280;66154;45.544;6.756;2024-02-28T19:36:22;87047.69;;;4.77;67.14
60049;BME280;66154;45.544;6.756;2024-02-28T19:41:22;87040.69;;;4.67;67.41
60049;BME280;66154;45.544;6.756;2024-02-28T19:46:23;87043.00;;;4.58;67.04
60049;BME280;66154;45.544;6.756;2024-02-28T19:51:23;87052.75;;;4.47;67.49
60049;BME280;66154;45.544;6.756;2024-02-28T19:56:24;87049.81;;;4.38;66.97
60049;BME280;66154;45.544;6.756;2024-02-28T20:01:26;87059.91;;;4.29;67.19
60049;BME280;66154;45.544;6.756;2024-02-28T20:06:27;87046.97;;;4.22;67.60
60049;BME280;66154;45.544;6.756;2024-02-28T20:11:27;87058.53;;;4.14;67.80
60049;BME280;66154;45.544;6.756;2024-02-28T20:16:28;87060.78;;;4.08;66.81
60049;BME280;66154;45.544;6.756;2024-02-28T20:21:28;87054.50;;;4.02;67.85
60049;BME280;66154;45.544;6.756;2024-02-28T20:26:29;87059.00;;;3.95;67.45
60049;BME280;66154;45.544;6.756;2024-02-28T20:31:30;87061.25;;;3.89;67.77
60049;BME280;66154;45.544;6.756;2024-02-28T20:36:30;87056.44;;;3.84;67.90
60049;BME280;66154;45.544;6.756;2024-02-28T20:41:31;87052.75;;;3.78;67.52
60049;BME280;66154;45.544;6.756;2024-02-28T20:46:33;87067.63;;;3.70;67.94
60049;BME280;66154;45.544;6.756;2024-02-28T20:51:34;87068.41;;;3.67;68.52
60049;BME280;66154;45.544;6.756;2024-02-28T20:56:35;87061.34;;;3.64;68.61
60049;BME280;66154;45.544;6.756;2024-02-28T21:01:39;87065.47;;;3.58;68.26
60049;BME280;66154;45.544;6.756;2024-02-28T21:06:40;87055.81;;;3.52;68.10
60049;BME280;66154;45.544;6.756;2024-02-28T21:11:40;87059.19;;;3.45;68.26
60049;BME280;66154;45.544;6.756;2024-02-28T21:16:42;87052.53;;;3.37;67.06
60049;BME280;66154;45.544;6.756;2024-02-28T21:21:43;87048.09;;;3.31;66.89
60049;BME280;66154;45.544;6.756;2024-02-28T21:26:43;87039.19;;;3.28;66.07
60049;BME280;66154;45.544;6.756;2024-02-28T21:31:44;87033.25;;;3.24;67.34
60049;BME280;66154;45.544;6.756;2024-02-28T21:36:44;87037.00;;;3.23;66.95
60049;BME280;66154;45.544;6.756;2024-02-28T21:41:45;87031.06;;;3.19;67.35
60049;BME280;66154;45.544;6.756;2024-02-28T21:46:49;87023.28;;;3.16;67.81
60049;BME280;66154;45.544;6.756;2024-02-28T21:51:49;87023.31;;;3.12;68.43
60049;BME280;66154;45.544;6.756;2024-02-28T21:56:50;87031.47;;;3.07;67.96
60049;BME280;66154;45.544;6.756;2024-02-28T22:01:50;87028.88;;;3.04;68.48
60049;BME280;66154;45.544;6.756;2024-02-28T22:06:51;87023.69;;;3.00;67.72
60049;BME280;66154;45.544;6.756;2024-02-28T22:11:52;87027.78;;;2.94;68.46
60049;BME280;66154;45.544;6.756;2024-02-28T22:16:53;87013.69;;;2.88;68.06
60049;BME280;66154;45.544;6.756;2024-02-28T22:21:53;87012.59;;;2.82;68.39
60049;BME280;66154;45.544;6.756;2024-02-28T22:26:54;87003.69;;;2.76;67.79
60049;BME280;66154;45.544;6.756;2024-02-28T22:31:54;86996.66;;;2.73;68.17
60049;BME280;66154;45.544;6.756;2024-02-28T22:36:55;86994.09;;;2.69;66.84
60049;BME280;66154;45.544;6.756;2024-02-28T22:41:55;86994.81;;;2.66;67.28
60049;BME280;66154;45.544;6.756;2024-02-28T22:46:58;86991.84;;;2.64;66.97
60049;BME280;66154;45.544;6.756;2024-02-28T22:51:59;86988.53;;;2.60;68.47
60049;BME280;66154;45.544;6.756;2024-02-28T22:56:59;86980.00;;;2.60;67.89
60049;BME280;66154;45.544;6.756;2024-02-28T23:02:00;86984.84;;;2.58;68.62
60049;BME280;66154;45.544;6.756;2024-02-28T23:07:01;86980.75;;;2.57;66.36
60049;BME280;66154;45.544;6.756;2024-02-28T23:12:02;86975.94;;;2.55;67.21
60049;BME280;66154;45.544;6.756;2024-02-28T23:17:04;86981.50;;;2.54;67.99
60049;BME280;66154;45.544;6.756;2024-02-28T23:22:04;86982.97;;;2.51;68.16
60049;BME280;66154;45.544;6.756;2024-02-28T23:27:06;86982.22;;;2.51;68.64
60049;BME280;66154;45.544;6.756;2024-02-28T23:32:07;86970.00;;;2.48;66.76
60049;BME280;66154;45.544;6.756;2024-02-28T23:37:08;86962.97;;;2.48;67.66
60049;BME280;66154;45.544;6.756;2024-02-28T23:42:08;86961.88;;;2.46;65.36
60049;BME280;66154;45.544;6.756;2024-02-28T23:47:09;86957.78;;;2.41;67.04
60049;BME280;66154;45.544;6.756;2024-02-28T23:52:09;86958.53;;;2.38;66.71
60049;BME280;66154;45.544;6.756;2024-02-28T23:57:10;86967.06;;;2.39;69.43
